sensor_id;sensor_type;location;lat;lon;timestamp;temperature;humidity
7844;DHT22;3967;48.702;9.326;2023-05-28T00:00:48;17.80;66.20
7844;DHT22;3967;48.702;9.326;2023-05-28T00:03:15;17.90;66.30
7844;DHT22;3967;48.702;9.326;2023-05-28T00:05:44;17.70;66.20
7844;DHT22;3967;48.702;9.326;2023-05-28T00:08:11;17.70;66.50
7844;DHT22;3967;48.702;9.326;2023-05-28T00:10:41;17.60;66.90
7844;DHT22;3967;48.702;9.326;2023-05-28T00:13:08;17.50;67.10
7844;DHT22;3967;48.702;9.326;2023-05-28T00:15:35;17.50;67.60
7844;DHT22;3967;48.702;9.326;2023-05-28T00:18:04;17.50;67.40
7844;DHT22;3967;48.702;9.326;2023-05-28T00:20:31;17.40;67.30
7844;DHT22;3967;48.702;9.326;2023-05-28T00:22:58;17.40;67.20
7844;DHT22;3967;48.702;9.326;2023-05-28T00:25:25;17.40;67.20
7844;DHT22;3967;48.702;9.326;2023-05-28T00:27:52;17.30;67.40
7844;DHT22;3967;48.702;9.326;2023-05-28T00:30:19;17.30;67.40
7844;DHT22;3967;48.702;9.326;2023-05-28T00:32:45;17.30;67.40
7844;DHT22;3967;48.702;9.326;2023-05-28T00:35:12;17.20;67.50
7844;DHT22;3967;48.702;9.326;2023-05-28T00:37:39;17.20;67.80
7844;DHT22;3967;48.702;9.326;2023-05-28T00:40:06;17.20;68.20
7844;DHT22;3967;48.702;9.326;2023-05-28T00:42:34;17.10;68.20
7844;DHT22;3967;48.702;9.326;2023-05-28T00:45:02;17.00;68.60
7844;DHT22;3967;48.702;9.326;2023-05-28T00:47:29;16.80;69.20
7844;DHT22;3967;48.702;9.326;2023-05-28T00:49:56;16.60;68.90
7844;DHT22;3967;48.702;9.326;2023-05-28T00:52:24;16.60;69.50
7844;DHT22;3967;48.702;9.326;2023-05-28T00:54:50;16.50;69.60
7844;DHT22;3967;48.702;9.326;2023-05-28T00:57:17;16.50;69.90
7844;DHT22;3967;48.702;9.326;2023-05-28T00:59:48;16.50;70.00
7844;DHT22;3967;48.702;9.326;2023-05-28T01:02:15;16.40;70.50
7844;DHT22;3967;48.702;9.326;2023-05-28T01:04:42;16.40;70.70
7844;DHT22;3967;48.702;9.326;2023-05-28T01:07:09;16.30;70.50
7844;DHT22;3967;48.702;9.326;2023-05-28T01:09:35;16.40;70.50
7844;DHT22;3967;48.702;9.326;2023-05-28T01:12:03;16.40;71.00
7844;DHT22;3967;48.702;9.326;2023-05-28T01:14:32;16.30;70.90
7844;DHT22;3967;48.702;9.326;2023-05-28T01:16:58;16.20;71.20
7844;DHT22;3967;48.702;9.326;2023-05-28T01:19:25;16.10;71.60
7844;DHT22;3967;48.702;9.326;2023-05-28T01:22:05;16.10;71.70
7844;DHT22;3967;48.702;9.326;2023-05-28T01:24:35;16.10;71.60
7844;DHT22;3967;48.702;9.326;2023-05-28T01:27:06;16.10;71.50
7844;DHT22;3967;48.702;9.326;2023-05-28T01:29:33;16.00;71.10
7844;DHT22;3967;48.702;9.326;2023-05-28T01:32:00;16.00;71.30
7844;DHT22;3967;48.702;9.326;2023-05-28T01:34:27;16.10;71.40
7844;DHT22;3967;48.702;9.326;2023-05-28T01:36:55;16.10;71.20
7844;DHT22;3967;48.702;9.326;2023-05-28T01:39:26;16.00;71.70
7844;DHT22;3967;48.702;9.326;2023-05-28T01:41:54;15.80;71.80
7844;DHT22;3967;48.702;9.326;2023-05-28T01:44:22;15.70;72.80
7844;DHT22;3967;48.702;9.326;2023-05-28T01:46:51;15.60;73.20
7844;DHT22;3967;48.702;9.326;2023-05-28T01:49:21;15.50;74.00
7844;DHT22;3967;48.702;9.326;2023-05-28T01:51:50;15.50;74.20
7844;DHT22;3967;48.702;9.326;2023-05-28T01:54:17;15.50;74.80
7844;DHT22;3967;48.702;9.326;2023-05-28T01:56:44;15.70;74.40
7844;DHT22;3967;48.702;9.326;2023-05-28T01:59:11;15.70;74.00
7844;DHT22;3967;48.702;9.326;2023-05-28T02:01:38;15.40;73.90
7844;DHT22;3967;48.702;9.326;2023-05-28T02:04:05;15.30;74.50
7844;DHT22;3967;48.702;9.326;2023-05-28T02:06:32;15.10;74.70
7844;DHT22;3967;48.702;9.326;2023-05-28T02:09:02;15.10;75.00
7844;DHT22;3967;48.702;9.326;2023-05-28T02:11:29;15.10;75.10
7844;DHT22;3967;48.702;9.326;2023-05-28T02:13:56;15.30;74.70
7844;DHT22;3967;48.702;9.326;2023-05-28T02:16:23;15.20;74.60
7844;DHT22;3967;48.702;9.326;2023-05-28T02:18:51;15.20;74.90
7844;DHT22;3967;48.702;9.326;2023-05-28T02:21:19;15.00;75.00
7844;DHT22;3967;48.702;9.326;2023-05-28T02:23:48;15.00;76.10
7844;DHT22;3967;48.702;9.326;2023-05-28T02:26:15;15.00;75.90
7844;DHT22;3967;48.702;9.326;2023-05-28T02:28:42;15.10;76.10
7844;DHT22;3967;48.702;9.326;2023-05-28T02:31:10;15.10;75.90
7844;DHT22;3967;48.702;9.326;2023-05-28T02:33:41;14.90;75.70
7844;DHT22;3967;48.702;9.326;2023-05-28T02:36:09;14.90;76.20
7844;DHT22;3967;48.702;9.326;2023-05-28T02:38:40;14.90;76.30
7844;DHT22;3967;48.702;9.326;2023-05-28T02:41:07;14.70;76.70
7844;DHT22;3967;48.702;9.326;2023-05-28T02:43:34;14.90;77.10
7844;DHT22;3967;48.702;9.326;2023-05-28T02:46:01;14.90;77.20
7844;DHT22;3967;48.702;9.326;2023-05-28T02:48:28;14.80;77.70
7844;DHT22;3967;48.702;9.326;2023-05-28T02:50:55;14.60;78.40
7844;DHT22;3967;48.702;9.326;2023-05-28T02:53:23;14.60;79.20
7844;DHT22;3967;48.702;9.326;2023-05-28T02:55:50;14.60;79.20
7844;DHT22;3967;48.702;9.326;2023-05-28T02:58:17;14.60;79.20
7844;DHT22;3967;48.702;9.326;2023-05-28T03:00:45;14.50;79.80
7844;DHT22;3967;48.702;9.326;2023-05-28T03:03:15;14.60;79.90
7844;DHT22;3967;48.702;9.326;2023-05-28T03:05:42;14.70;79.60
7844;DHT22;3967;48.702;9.326;2023-05-28T03:08:08;14.70;79.30
7844;DHT22;3967;48.702;9.326;2023-05-28T03:10:35;14.80;79.40
7844;DHT22;3967;48.702;9.326;2023-05-28T03:13:02;14.80;79.40
7844;DHT22;3967;48.702;9.326;2023-05-28T03:15:30;14.80;79.20
7844;DHT22;3967;48.702;9.326;2023-05-28T03:17:57;14.80;79.30
7844;DHT22;3967;48.702;9.326;2023-05-28T03:20:25;14.70;79.20
7844;DHT22;3967;48.702;9.326;2023-05-28T03:22:56;14.70;79.00
7844;DHT22;3967;48.702;9.326;2023-05-28T03:25:26;14.70;79.30
7844;DHT22;3967;48.702;9.326;2023-05-28T03:27:53;14.70;80.00
7844;DHT22;3967;48.702;9.326;2023-05-28T03:30:20;14.60;79.40
7844;DHT22;3967;48.702;9.326;2023-05-28T03:32:50;14.60;79.90
7844;DHT22;3967;48.702;9.326;2023-05-28T03:35:17;14.40;80.50
7844;DHT22;3967;48.702;9.326;2023-05-28T03:37:46;14.40;81.00
7844;DHT22;3967;48.702;9.326;2023-05-28T03:40:13;14.40;81.70
7844;DHT22;3967;48.702;9.326;2023-05-28T03:42:40;14.20;81.60
7844;DHT22;3967;48.702;9.326;2023-05-28T03:45:07;14.20;82.20
7844;DHT22;3967;48.702;9.326;2023-05-28T03:47:34;14.20;82.50
7844;DHT22;3967;48.702;9.326;2023-05-28T03:50:02;14.00;82.90
7844;DHT22;3967;48.702;9.326;2023-05-28T03:52:31;14.10;83.30
7844;DHT22;3967;48.702;9.326;2023-05-28T03:54:58;14.10;83.30
7844;DHT22;3967;48.702;9.326;2023-05-28T03:57:24;14.20;83.20
7844;DHT22;3967;48.702;9.326;2023-05-28T03:59:51;14.30;83.00
7844;DHT22;3967;48.702;9.326;2023-05-28T04:02:19;14.30;82.60
7844;DHT22;3967;48.702;9.326;2023-05-28T04:04:45;14.30;82.70
7844;DHT22;3967;48.702;9.326;2023-05-28T04:07:13;14.20;83.10
7844;DHT22;3967;48.702;9.326;2023-05-28T04:09:40;14.20;83.50
7844;DHT22;3967;48.702;9.326;2023-05-28T04:12:07;14.20;83.30
7844;DHT22;3967;48.702;9.326;2023-05-28T04:14:35;14.20;83.60
7844;DHT22;3967;48.702;9.326;2023-05-28T04:17:02;14.00;83.90
7844;DHT22;3967;48.702;9.326;2023-05-28T04:19:29;14.00;84.50
7844;DHT22;3967;48.702;9.326;2023-05-28T04:21:56;14.00;84.50
7844;DHT22;3967;48.702;9.326;2023-05-28T04:24:23;14.00;84.60
7844;DHT22;3967;48.702;9.326;2023-05-28T04:26:49;14.00;84.50
7844;DHT22;3967;48.702;9.326;2023-05-28T04:29:18;14.10;84.70
7844;DHT22;3967;48.702;9.326;2023-05-28T04:31:44;14.30;83.50
7844;DHT22;3967;48.702;9.326;2023-05-28T04:34:14;14.30;83.60
7844;DHT22;3967;48.702;9.326;2023-05-28T04:36:43;14.40;83.50
7844;DHT22;3967;48.702;9.326;2023-05-28T04:39:10;14.50;83.10
7844;DHT22;3967;48.702;9.326;2023-05-28T04:41:37;14.60;83.10
7844;DHT22;3967;48.702;9.326;2023-05-28T04:44:04;14.70;82.90
7844;DHT22;3967;48.702;9.326;2023-05-28T04:46:31;14.80;82.70
7844;DHT22;3967;48.702;9.326;2023-05-28T04:48:57;15.00;82.50
7844;DHT22;3967;48.702;9.326;2023-05-28T04:51:25;15.00;81.80
7844;DHT22;3967;48.702;9.326;2023-05-28T04:53:51;15.00;82.20
7844;DHT22;3967;48.702;9.326;2023-05-28T04:56:18;14.90;83.00
7844;DHT22;3967;48.702;9.326;2023-05-28T04:58:45;14.80;83.80
7844;DHT22;3967;48.702;9.326;2023-05-28T05:01:13;14.80;84.20
7844;DHT22;3967;48.702;9.326;2023-05-28T05:03:41;14.80;83.10
7844;DHT22;3967;48.702;9.326;2023-05-28T05:06:08;14.70;81.80
7844;DHT22;3967;48.702;9.326;2023-05-28T05:08:35;14.70;81.90
7844;DHT22;3967;48.702;9.326;2023-05-28T05:11:01;14.70;81.50
7844;DHT22;3967;48.702;9.326;2023-05-28T05:13:28;14.70;82.10
7844;DHT22;3967;48.702;9.326;2023-05-28T05:15:55;14.70;82.30
7844;DHT22;3967;48.702;9.326;2023-05-28T05:18:22;14.80;80.70
7844;DHT22;3967;48.702;9.326;2023-05-28T05:20:49;14.80;79.70
7844;DHT22;3967;48.702;9.326;2023-05-28T05:23:16;14.90;78.00
7844;DHT22;3967;48.702;9.326;2023-05-28T05:25:43;14.90;76.60
7844;DHT22;3967;48.702;9.326;2023-05-28T05:28:10;14.90;77.40
7844;DHT22;3967;48.702;9.326;2023-05-28T05:30:37;15.00;78.50
7844;DHT22;3967;48.702;9.326;2023-05-28T05:33:04;15.10;78.00
7844;DHT22;3967;48.702;9.326;2023-05-28T05:35:30;15.40;76.40
7844;DHT22;3967;48.702;9.326;2023-05-28T05:37:57;15.60;76.20
7844;DHT22;3967;48.702;9.326;2023-05-28T05:40:24;15.60;75.70
7844;DHT22;3967;48.702;9.326;2023-05-28T05:42:51;15.60;76.30
7844;DHT22;3967;48.702;9.326;2023-05-28T05:45:17;15.80;76.20
7844;DHT22;3967;48.702;9.326;2023-05-28T05:47:44;15.80;76.70
7844;DHT22;3967;48.702;9.326;2023-05-28T05:50:11;16.00;75.10
7844;DHT22;3967;48.702;9.326;2023-05-28T05:52:41;16.10;75.30
7844;DHT22;3967;48.702;9.326;2023-05-28T05:55:08;16.20;76.00
7844;DHT22;3967;48.702;9.326;2023-05-28T05:57:35;16.30;77.00
7844;DHT22;3967;48.702;9.326;2023-05-28T06:00:04;16.60;78.30
7844;DHT22;3967;48.702;9.326;2023-05-28T06:02:32;16.70;76.90
7844;DHT22;3967;48.702;9.326;2023-05-28T06:04:58;16.80;78.60
7844;DHT22;3967;48.702;9.326;2023-05-28T06:07:26;16.90;78.00
7844;DHT22;3967;48.702;9.326;2023-05-28T06:09:53;16.90;77.90
7844;DHT22;3967;48.702;9.326;2023-05-28T06:12:19;17.00;76.40
7844;DHT22;3967;48.702;9.326;2023-05-28T06:14:46;17.10;75.80
7844;DHT22;3967;48.702;9.326;2023-05-28T06:17:13;17.40;75.40
7844;DHT22;3967;48.702;9.326;2023-05-28T06:19:40;17.70;74.30
7844;DHT22;3967;48.702;9.326;2023-05-28T06:22:07;17.80;74.20
7844;DHT22;3967;48.702;9.326;2023-05-28T06:24:39;17.90;73.00
7844;DHT22;3967;48.702;9.326;2023-05-28T06:27:06;18.20;71.10
7844;DHT22;3967;48.702;9.326;2023-05-28T06:29:33;18.50;69.90
7844;DHT22;3967;48.702;9.326;2023-05-28T06:32:00;18.70;68.80
7844;DHT22;3967;48.702;9.326;2023-05-28T06:34:27;18.90;68.60
7844;DHT22;3967;48.702;9.326;2023-05-28T06:36:53;18.80;67.10
7844;DHT22;3967;48.702;9.326;2023-05-28T06:39:20;18.90;67.20
7844;DHT22;3967;48.702;9.326;2023-05-28T06:41:47;18.90;67.50
7844;DHT22;3967;48.702;9.326;2023-05-28T06:44:13;19.10;66.50
7844;DHT22;3967;48.702;9.326;2023-05-28T06:46:40;19.30;65.70
7844;DHT22;3967;48.702;9.326;2023-05-28T06:49:07;19.60;65.80
7844;DHT22;3967;48.702;9.326;2023-05-28T06:51:37;19.60;65.80
7844;DHT22;3967;48.702;9.326;2023-05-28T06:54:04;19.60;63.70
7844;DHT22;3967;48.702;9.326;2023-05-28T06:56:31;19.60;64.70
7844;DHT22;3967;48.702;9.326;2023-05-28T06:58:58;19.80;63.50
7844;DHT22;3967;48.702;9.326;2023-05-28T07:01:24;19.80;64.20
7844;DHT22;3967;48.702;9.326;2023-05-28T07:03:51;19.90;65.30
7844;DHT22;3967;48.702;9.326;2023-05-28T07:06:18;20.10;64.10
7844;DHT22;3967;48.702;9.326;2023-05-28T07:08:45;20.40;63.30
7844;DHT22;3967;48.702;9.326;2023-05-28T07:11:12;20.80;63.30
7844;DHT22;3967;48.702;9.326;2023-05-28T07:13:39;20.80;62.80
7844;DHT22;3967;48.702;9.326;2023-05-28T07:16:07;20.80;61.20
7844;DHT22;3967;48.702;9.326;2023-05-28T07:18:34;20.90;60.80
7844;DHT22;3967;48.702;9.326;2023-05-28T07:21:00;20.80;60.70
7844;DHT22;3967;48.702;9.326;2023-05-28T07:23:28;20.80;60.70
7844;DHT22;3967;48.702;9.326;2023-05-28T07:25:55;21.10;60.30
7844;DHT22;3967;48.702;9.326;2023-05-28T07:28:22;21.40;60.70
7844;DHT22;3967;48.702;9.326;2023-05-28T07:30:49;21.60;59.20
7844;DHT22;3967;48.702;9.326;2023-05-28T07:33:15;21.70;59.10
7844;DHT22;3967;48.702;9.326;2023-05-28T07:35:42;22.00;58.10
7844;DHT22;3967;48.702;9.326;2023-05-28T07:38:09;21.70;57.70
7844;DHT22;3967;48.702;9.326;2023-05-28T07:40:37;21.90;58.20
7844;DHT22;3967;48.702;9.326;2023-05-28T07:43:04;22.30;57.80
7844;DHT22;3967;48.702;9.326;2023-05-28T07:45:30;22.40;57.50
7844;DHT22;3967;48.702;9.326;2023-05-28T07:47:57;22.70;58.30
7844;DHT22;3967;48.702;9.326;2023-05-28T07:50:24;22.60;55.60
7844;DHT22;3967;48.702;9.326;2023-05-28T07:52:51;23.00;56.30
7844;DHT22;3967;48.702;9.326;2023-05-28T07:55:18;22.20;55.90
7844;DHT22;3967;48.702;9.326;2023-05-28T07:57:44;22.70;56.90
7844;DHT22;3967;48.702;9.326;2023-05-28T08:00:11;22.80;57.60
7844;DHT22;3967;48.702;9.326;2023-05-28T08:02:43;22.90;56.20
7844;DHT22;3967;48.702;9.326;2023-05-28T08:05:12;23.10;56.10
7844;DHT22;3967;48.702;9.326;2023-05-28T08:07:40;23.30;54.70
7844;DHT22;3967;48.702;9.326;2023-05-28T08:10:07;22.90;54.50
7844;DHT22;3967;48.702;9.326;2023-05-28T08:12:34;23.20;54.80
7844;DHT22;3967;48.702;9.326;2023-05-28T08:15:01;23.50;53.70
7844;DHT22;3967;48.702;9.326;2023-05-28T08:17:34;23.70;53.80
7844;DHT22;3967;48.702;9.326;2023-05-28T08:20:01;23.70;54.00
7844;DHT22;3967;48.702;9.326;2023-05-28T08:22:29;23.70;53.70
7844;DHT22;3967;48.702;9.326;2023-05-28T08:24:55;23.80;53.50
7844;DHT22;3967;48.702;9.326;2023-05-28T08:27:22;23.70;53.90
7844;DHT22;3967;48.702;9.326;2023-05-28T08:29:49;23.60;54.80
7844;DHT22;3967;48.702;9.326;2023-05-28T08:32:16;23.20;53.80
7844;DHT22;3967;48.702;9.326;2023-05-28T08:34:42;23.50;54.30
7844;DHT22;3967;48.702;9.326;2023-05-28T08:37:10;23.50;53.30
7844;DHT22;3967;48.702;9.326;2023-05-28T08:39:37;23.60;54.50
7844;DHT22;3967;48.702;9.326;2023-05-28T08:42:04;23.80;54.70
7844;DHT22;3967;48.702;9.326;2023-05-28T08:44:31;23.80;53.90
7844;DHT22;3967;48.702;9.326;2023-05-28T08:46:59;23.60;53.60
7844;DHT22;3967;48.702;9.326;2023-05-28T08:49:31;23.90;53.20
7844;DHT22;3967;48.702;9.326;2023-05-28T08:52:02;24.00;53.20
7844;DHT22;3967;48.702;9.326;2023-05-28T08:54:29;24.20;53.00
7844;DHT22;3967;48.702;9.326;2023-05-28T08:56:57;24.00;53.30
7844;DHT22;3967;48.702;9.326;2023-05-28T08:59:25;24.00;52.70
7844;DHT22;3967;48.702;9.326;2023-05-28T09:01:54;23.80;53.90
7844;DHT22;3967;48.702;9.326;2023-05-28T09:04:22;24.00;54.20
7844;DHT22;3967;48.702;9.326;2023-05-28T09:06:49;24.30;53.20
7844;DHT22;3967;48.702;9.326;2023-05-28T09:09:18;24.20;53.80
7844;DHT22;3967;48.702;9.326;2023-05-28T09:11:44;24.60;54.10
7844;DHT22;3967;48.702;9.326;2023-05-28T09:14:13;24.70;53.10
7844;DHT22;3967;48.702;9.326;2023-05-28T09:16:41;24.60;52.10
7844;DHT22;3967;48.702;9.326;2023-05-28T09:19:09;24.80;52.50
7844;DHT22;3967;48.702;9.326;2023-05-28T09:21:36;24.70;51.60
7844;DHT22;3967;48.702;9.326;2023-05-28T09:24:03;24.70;52.40
7844;DHT22;3967;48.702;9.326;2023-05-28T09:26:31;24.90;52.30
7844;DHT22;3967;48.702;9.326;2023-05-28T09:28:59;25.00;52.30
7844;DHT22;3967;48.702;9.326;2023-05-28T09:31:30;24.90;52.40
7844;DHT22;3967;48.702;9.326;2023-05-28T09:34:04;25.00;51.70
7844;DHT22;3967;48.702;9.326;2023-05-28T09:36:31;25.00;52.00
7844;DHT22;3967;48.702;9.326;2023-05-28T09:38:58;24.90;50.60
7844;DHT22;3967;48.702;9.326;2023-05-28T09:41:26;24.90;50.00
7844;DHT22;3967;48.702;9.326;2023-05-28T09:44:02;25.10;50.60
7844;DHT22;3967;48.702;9.326;2023-05-28T09:46:32;25.10;50.90
7844;DHT22;3967;48.702;9.326;2023-05-28T09:49:00;24.50;49.50
7844;DHT22;3967;48.702;9.326;2023-05-28T09:51:29;25.00;50.80
7844;DHT22;3967;48.702;9.326;2023-05-28T09:53:58;25.00;50.40
7844;DHT22;3967;48.702;9.326;2023-05-28T09:56:28;24.90;49.40
7844;DHT22;3967;48.702;9.326;2023-05-28T09:59:02;25.10;50.70
7844;DHT22;3967;48.702;9.326;2023-05-28T10:01:33;25.10;50.70
7844;DHT22;3967;48.702;9.326;2023-05-28T10:04:07;24.90;49.70
7844;DHT22;3967;48.702;9.326;2023-05-28T10:06:38;25.00;50.40
7844;DHT22;3967;48.702;9.326;2023-05-28T10:09:06;25.20;49.50
7844;DHT22;3967;48.702;9.326;2023-05-28T10:11:42;25.10;50.00
7844;DHT22;3967;48.702;9.326;2023-05-28T10:14:11;25.00;50.00
7844;DHT22;3967;48.702;9.326;2023-05-28T10:16:37;25.00;49.60
7844;DHT22;3967;48.702;9.326;2023-05-28T10:19:05;25.10;49.10
7844;DHT22;3967;48.702;9.326;2023-05-28T10:21:32;24.80;49.30
7844;DHT22;3967;48.702;9.326;2023-05-28T10:23:59;25.10;49.60
7844;DHT22;3967;48.702;9.326;2023-05-28T10:26:26;25.20;49.20
7844;DHT22;3967;48.702;9.326;2023-05-28T10:28:54;25.30;48.90
7844;DHT22;3967;48.702;9.326;2023-05-28T10:31:22;25.20;47.90
7844;DHT22;3967;48.702;9.326;2023-05-28T10:33:49;25.30;46.90
7844;DHT22;3967;48.702;9.326;2023-05-28T10:36:17;25.30;47.20
7844;DHT22;3967;48.702;9.326;2023-05-28T10:38:46;25.30;47.20
7844;DHT22;3967;48.702;9.326;2023-05-28T10:41:22;25.20;43.70
7844;DHT22;3967;48.702;9.326;2023-05-28T10:43:50;25.30;44.60
7844;DHT22;3967;48.702;9.326;2023-05-28T10:51:55;25.60;46.50
7844;DHT22;3967;48.702;9.326;2023-05-28T11:00:00;25.80;44.90
7844;DHT22;3967;48.702;9.326;2023-05-28T11:02:36;25.70;46.60
7844;DHT22;3967;48.702;9.326;2023-05-28T11:05:03;25.60;45.70
7844;DHT22;3967;48.702;9.326;2023-05-28T11:07:39;25.60;46.00
7844;DHT22;3967;48.702;9.326;2023-05-28T11:10:08;25.60;46.50
7844;DHT22;3967;48.702;9.326;2023-05-28T11:12:37;25.50;45.90
7844;DHT22;3967;48.702;9.326;2023-05-28T11:15:06;25.70;46.10
7844;DHT22;3967;48.702;9.326;2023-05-28T11:17:37;25.90;45.50
7844;DHT22;3967;48.702;9.326;2023-05-28T11:20:13;26.20;45.80
7844;DHT22;3967;48.702;9.326;2023-05-28T11:22:40;26.40;45.90
7844;DHT22;3967;48.702;9.326;2023-05-28T11:25:08;26.30;45.20
7844;DHT22;3967;48.702;9.326;2023-05-28T11:27:36;26.40;45.40
7844;DHT22;3967;48.702;9.326;2023-05-28T11:32:35;26.50;44.50
7844;DHT22;3967;48.702;9.326;2023-05-28T11:35:02;26.30;45.30
7844;DHT22;3967;48.702;9.326;2023-05-28T11:37:36;25.80;44.40
7844;DHT22;3967;48.702;9.326;2023-05-28T11:40:05;25.90;45.90
7844;DHT22;3967;48.702;9.326;2023-05-28T11:42:40;26.20;44.70
7844;DHT22;3967;48.702;9.326;2023-05-28T11:45:09;26.30;45.80
7844;DHT22;3967;48.702;9.326;2023-05-28T11:47:37;26.40;44.60
7844;DHT22;3967;48.702;9.326;2023-05-28T11:50:14;26.10;43.00
7844;DHT22;3967;48.702;9.326;2023-05-28T11:52:42;26.20;42.70
7844;DHT22;3967;48.702;9.326;2023-05-28T11:55:09;26.50;42.90
7844;DHT22;3967;48.702;9.326;2023-05-28T11:57:37;27.10;42.90
7844;DHT22;3967;48.702;9.326;2023-05-28T12:00:10;27.10;42.70
7844;DHT22;3967;48.702;9.326;2023-05-28T12:05:13;26.80;43.10
7844;DHT22;3967;48.702;9.326;2023-05-28T12:07:45;26.90;43.90
7844;DHT22;3967;48.702;9.326;2023-05-28T12:10:14;26.30;43.30
7844;DHT22;3967;48.702;9.326;2023-05-28T12:12:43;26.80;45.30
7844;DHT22;3967;48.702;9.326;2023-05-28T12:15:10;26.70;43.00
7844;DHT22;3967;48.702;9.326;2023-05-28T12:17:38;26.80;43.30
7844;DHT22;3967;48.702;9.326;2023-05-28T12:22:33;26.90;41.90
7844;DHT22;3967;48.702;9.326;2023-05-28T12:25:01;27.10;41.60
7844;DHT22;3967;48.702;9.326;2023-05-28T12:27:27;26.70;41.10
7844;DHT22;3967;48.702;9.326;2023-05-28T12:29:54;26.60;42.70
7844;DHT22;3967;48.702;9.326;2023-05-28T12:32:21;26.70;43.60
7844;DHT22;3967;48.702;9.326;2023-05-28T12:34:48;26.80;43.40
7844;DHT22;3967;48.702;9.326;2023-05-28T12:37:18;26.50;41.80
7844;DHT22;3967;48.702;9.326;2023-05-28T12:39:45;26.60;42.20
7844;DHT22;3967;48.702;9.326;2023-05-28T12:42:11;26.40;41.30
7844;DHT22;3967;48.702;9.326;2023-05-28T12:44:38;26.80;42.30
7844;DHT22;3967;48.702;9.326;2023-05-28T12:47:05;27.00;41.70
7844;DHT22;3967;48.702;9.326;2023-05-28T12:49:33;26.60;42.80
7844;DHT22;3967;48.702;9.326;2023-05-28T12:51:59;26.70;44.00
7844;DHT22;3967;48.702;9.326;2023-05-28T12:54:26;26.30;41.20
7844;DHT22;3967;48.702;9.326;2023-05-28T12:56:53;26.40;41.70
7844;DHT22;3967;48.702;9.326;2023-05-28T12:59:24;26.80;41.90
7844;DHT22;3967;48.702;9.326;2023-05-28T13:01:52;26.90;42.60
7844;DHT22;3967;48.702;9.326;2023-05-28T13:04:19;26.90;41.90
7844;DHT22;3967;48.702;9.326;2023-05-28T13:06:46;27.20;42.20
7844;DHT22;3967;48.702;9.326;2023-05-28T13:09:14;26.70;40.10
7844;DHT22;3967;48.702;9.326;2023-05-28T13:11:42;27.10;40.80
7844;DHT22;3967;48.702;9.326;2023-05-28T13:14:08;27.00;41.40
7844;DHT22;3967;48.702;9.326;2023-05-28T13:16:36;26.80;42.00
7844;DHT22;3967;48.702;9.326;2023-05-28T13:19:06;26.50;41.80
7844;DHT22;3967;48.702;9.326;2023-05-28T13:21:33;26.90;41.10
7844;DHT22;3967;48.702;9.326;2023-05-28T13:24:02;26.80;41.30
7844;DHT22;3967;48.702;9.326;2023-05-28T13:26:34;26.60;41.10
7844;DHT22;3967;48.702;9.326;2023-05-28T13:29:03;27.00;41.40
7844;DHT22;3967;48.702;9.326;2023-05-28T13:31:31;27.00;40.80
7844;DHT22;3967;48.702;9.326;2023-05-28T13:33:58;26.80;40.10
7844;DHT22;3967;48.702;9.326;2023-05-28T13:36:28;26.60;39.50
7844;DHT22;3967;48.702;9.326;2023-05-28T13:38:55;26.50;38.90
7844;DHT22;3967;48.702;9.326;2023-05-28T13:41:23;26.80;38.20
7844;DHT22;3967;48.702;9.326;2023-05-28T13:43:55;26.80;38.90
7844;DHT22;3967;48.702;9.326;2023-05-28T13:46:23;26.80;39.10
7844;DHT22;3967;48.702;9.326;2023-05-28T13:48:51;26.70;39.60
7844;DHT22;3967;48.702;9.326;2023-05-28T13:51:18;26.70;39.10
7844;DHT22;3967;48.702;9.326;2023-05-28T13:53:46;26.70;37.50
7844;DHT22;3967;48.702;9.326;2023-05-28T13:56:14;26.40;37.60
7844;DHT22;3967;48.702;9.326;2023-05-28T13:58:41;26.50;36.40
7844;DHT22;3967;48.702;9.326;2023-05-28T14:01:08;26.40;35.10
7844;DHT22;3967;48.702;9.326;2023-05-28T14:03:35;26.80;36.30
7844;DHT22;3967;48.702;9.326;2023-05-28T14:06:02;26.80;35.60
7844;DHT22;3967;48.702;9.326;2023-05-28T14:08:30;26.80;35.90
7844;DHT22;3967;48.702;9.326;2023-05-28T14:10:57;26.60;34.90
7844;DHT22;3967;48.702;9.326;2023-05-28T14:13:24;26.50;34.40
7844;DHT22;3967;48.702;9.326;2023-05-28T14:15:58;26.60;34.90
7844;DHT22;3967;48.702;9.326;2023-05-28T14:18:25;26.90;35.40
7844;DHT22;3967;48.702;9.326;2023-05-28T14:20:52;26.70;36.60
7844;DHT22;3967;48.702;9.326;2023-05-28T14:23:19;26.40;36.30
7844;DHT22;3967;48.702;9.326;2023-05-28T14:25:46;26.60;37.80
7844;DHT22;3967;48.702;9.326;2023-05-28T14:28:13;26.70;37.80
7844;DHT22;3967;48.702;9.326;2023-05-28T14:30:39;26.60;38.00
7844;DHT22;3967;48.702;9.326;2023-05-28T14:33:06;26.60;38.40
7844;DHT22;3967;48.702;9.326;2023-05-28T14:35:34;26.50;38.10
7844;DHT22;3967;48.702;9.326;2023-05-28T14:38:01;26.70;39.60
7844;DHT22;3967;48.702;9.326;2023-05-28T14:40:28;26.70;40.50
7844;DHT22;3967;48.702;9.326;2023-05-28T14:42:54;26.80;40.10
7844;DHT22;3967;48.702;9.326;2023-05-28T14:45:21;26.90;39.00
7844;DHT22;3967;48.702;9.326;2023-05-28T14:47:48;26.70;40.10
7844;DHT22;3967;48.702;9.326;2023-05-28T14:50:15;26.80;40.10
7844;DHT22;3967;48.702;9.326;2023-05-28T14:52:42;27.00;40.20
7844;DHT22;3967;48.702;9.326;2023-05-28T14:55:08;27.00;40.50
7844;DHT22;3967;48.702;9.326;2023-05-28T14:57:35;26.80;39.90
7844;DHT22;3967;48.702;9.326;2023-05-28T15:00:06;27.00;40.50
7844;DHT22;3967;48.702;9.326;2023-05-28T15:02:33;26.80;39.60
7844;DHT22;3967;48.702;9.326;2023-05-28T15:05:01;26.90;40.80
7844;DHT22;3967;48.702;9.326;2023-05-28T15:07:32;26.90;41.00
7844;DHT22;3967;48.702;9.326;2023-05-28T15:09:59;27.00;40.90
7844;DHT22;3967;48.702;9.326;2023-05-28T15:12:26;27.00;40.60
7844;DHT22;3967;48.702;9.326;2023-05-28T15:14:53;27.20;42.20
7844;DHT22;3967;48.702;9.326;2023-05-28T15:17:20;26.80;42.50
7844;DHT22;3967;48.702;9.326;2023-05-28T15:19:50;26.50;43.60
7844;DHT22;3967;48.702;9.326;2023-05-28T15:22:17;26.60;42.20
7844;DHT22;3967;48.702;9.326;2023-05-28T15:24:47;26.50;42.50
7844;DHT22;3967;48.702;9.326;2023-05-28T15:27:14;26.70;42.50
7844;DHT22;3967;48.702;9.326;2023-05-28T15:29:45;26.60;41.40
7844;DHT22;3967;48.702;9.326;2023-05-28T15:32:13;26.60;42.20
7844;DHT22;3967;48.702;9.326;2023-05-28T15:34:41;26.90;42.60
7844;DHT22;3967;48.702;9.326;2023-05-28T15:37:08;27.10;42.10
7844;DHT22;3967;48.702;9.326;2023-05-28T15:39:35;26.60;42.70
7844;DHT22;3967;48.702;9.326;2023-05-28T15:42:04;26.80;43.10
7844;DHT22;3967;48.702;9.326;2023-05-28T15:44:33;26.80;43.60
7844;DHT22;3967;48.702;9.326;2023-05-28T15:47:00;26.60;44.80
7844;DHT22;3967;48.702;9.326;2023-05-28T15:49:27;26.60;43.20
7844;DHT22;3967;48.702;9.326;2023-05-28T15:51:56;26.30;42.70
7844;DHT22;3967;48.702;9.326;2023-05-28T15:54:23;26.50;42.50
7844;DHT22;3967;48.702;9.326;2023-05-28T15:56:51;26.60;41.70
7844;DHT22;3967;48.702;9.326;2023-05-28T15:59:18;26.50;41.10
7844;DHT22;3967;48.702;9.326;2023-05-28T16:01:45;26.70;42.10
7844;DHT22;3967;48.702;9.326;2023-05-28T16:04:15;26.70;42.40
7844;DHT22;3967;48.702;9.326;2023-05-28T16:06:42;26.70;42.50
7844;DHT22;3967;48.702;9.326;2023-05-28T16:09:09;26.50;41.70
7844;DHT22;3967;48.702;9.326;2023-05-28T16:11:36;26.40;42.20
7844;DHT22;3967;48.702;9.326;2023-05-28T16:14:08;26.20;42.50
7844;DHT22;3967;48.702;9.326;2023-05-28T16:16:36;26.30;42.50
7844;DHT22;3967;48.702;9.326;2023-05-28T16:19:03;26.40;42.90
7844;DHT22;3967;48.702;9.326;2023-05-28T16:21:30;26.50;43.00
7844;DHT22;3967;48.702;9.326;2023-05-28T16:23:57;26.30;42.80